createdAt,value
2023-02-21T00:02:29.471Z,3.47
2023-02-21T00:05:30.146Z,3.46
2023-02-21T00:08:31.881Z,3.43
2023-02-21T00:11:32.695Z,3.23
2023-02-21T00:14:33.233Z,3.13
2023-02-21T00:17:33.440Z,3.13
2023-02-21T00:20:34.488Z,3.22
2023-02-21T00:23:36.602Z,3.26
2023-02-21T00:26:37.277Z,3.25
2023-02-21T00:29:37.627Z,3.19
2023-02-21T00:32:38.542Z,3.13
2023-02-21T00:35:39.003Z,3.10
2023-02-21T00:38:41.883Z,3.11
2023-02-21T00:41:42.705Z,3.11
2023-02-21T00:44:43.148Z,3.07
2023-02-21T00:47:45.108Z,3.18
2023-02-21T00:50:45.929Z,3.08
2023-02-21T00:53:48.214Z,3.14
2023-02-21T00:56:48.824Z,3.16
2023-02-21T00:59:49.230Z,3.18
2023-02-21T01:02:50.089Z,3.09
2023-02-21T01:05:50.863Z,3.29
2023-02-21T01:08:52.574Z,3.35
2023-02-21T01:11:53.284Z,3.35
2023-02-21T01:14:53.550Z,3.40
2023-02-21T01:17:54.241Z,3.44
2023-02-21T01:20:54.859Z,3.45
2023-02-21T01:23:57.044Z,3.46
2023-02-21T01:26:57.917Z,3.48
2023-02-21T01:29:58.118Z,3.59
2023-02-21T01:32:58.754Z,3.63
2023-02-21T01:35:59.620Z,3.67
2023-02-21T01:39:01.693Z,3.76
2023-02-21T01:42:02.393Z,3.71
2023-02-21T01:45:07.079Z,3.64
2023-02-21T01:48:08.043Z,3.57
2023-02-21T01:51:08.512Z,3.37
2023-02-21T01:54:11.454Z,3.37
2023-02-21T01:57:13.420Z,3.27
2023-02-21T02:00:16.517Z,3.33
2023-02-21T02:03:19.548Z,3.20
2023-02-21T02:06:22.585Z,3.35
2023-02-21T02:09:35.068Z,3.35
2023-02-21T02:12:33.550Z,3.34
2023-02-21T02:15:29.287Z,3.32
2023-02-21T02:18:34.570Z,3.46
2023-02-21T02:22:00.800Z,3.58
2023-02-21T02:25:01.774Z,3.56
2023-02-21T02:28:15.884Z,3.59
2023-02-21T02:31:37.584Z,3.64
2023-02-21T02:34:43.486Z,3.62
2023-02-21T02:37:37.455Z,3.49
2023-02-21T02:40:29.488Z,3.47
2023-02-21T02:43:21.741Z,3.53
2023-02-21T02:46:09.962Z,3.49
2023-02-21T02:48:59.396Z,3.48
2023-02-21T02:51:44.435Z,3.56
2023-02-21T02:54:27.847Z,3.51
2023-02-21T02:57:13.535Z,3.38
2023-02-21T02:59:59.009Z,3.47
2023-02-21T03:02:54.395Z,3.47
2023-02-21T03:05:59.103Z,3.36
2023-02-21T03:08:53.422Z,3.25
2023-02-21T03:11:42.373Z,3.23
2023-02-21T03:14:36.316Z,3.24
2023-02-21T03:17:25.022Z,3.24
2023-02-21T03:20:11.165Z,3.27
2023-02-21T03:22:57.191Z,3.25
2023-02-21T03:25:43.515Z,3.27
2023-02-21T03:28:27.492Z,3.26
2023-02-21T03:31:15.667Z,3.32
2023-02-21T03:33:59.104Z,3.39
2023-02-21T03:36:42.886Z,3.38
2023-02-21T03:39:26.036Z,3.34
2023-02-21T03:42:10.478Z,3.43
2023-02-21T03:44:53.584Z,3.34
2023-02-21T03:47:36.846Z,3.36
2023-02-21T03:50:20.436Z,3.40
2023-02-21T03:53:03.478Z,3.30
2023-02-21T03:55:46.879Z,3.31
2023-02-21T03:58:31.433Z,3.34
2023-02-21T04:01:14.705Z,3.26
2023-02-21T04:03:58.093Z,3.17
2023-02-21T04:06:41.520Z,3.17
2023-02-21T04:09:26.628Z,3.17
2023-02-21T04:12:10.597Z,3.07
2023-02-21T04:14:59.186Z,3.03
2023-02-21T04:17:42.341Z,2.96
2023-02-21T04:20:25.406Z,2.95
2023-02-21T04:23:09.530Z,2.93
2023-02-21T04:25:53.973Z,2.92
2023-02-21T04:28:39.492Z,2.84
2023-02-21T04:31:24.349Z,2.78
2023-02-21T04:34:12.271Z,2.84
2023-02-21T04:36:56.020Z,2.97
2023-02-21T04:39:39.235Z,2.92
2023-02-21T04:42:22.954Z,2.79
2023-02-21T04:45:06.609Z,2.85
2023-02-21T04:47:51.111Z,2.78
2023-02-21T04:50:34.565Z,2.79
2023-02-21T04:53:17.704Z,2.68
2023-02-21T04:56:00.946Z,2.74
2023-02-21T04:58:45.617Z,2.67
2023-02-21T05:01:31.454Z,2.76
2023-02-21T05:04:16.153Z,2.86
2023-02-21T05:07:00.429Z,2.80
2023-02-21T05:09:43.459Z,2.78
2023-02-21T05:12:26.554Z,2.80
2023-02-21T05:15:11.515Z,2.74
2023-02-21T05:17:54.595Z,2.68
2023-02-21T05:20:39.052Z,2.67
2023-02-21T05:23:33.996Z,2.74
2023-02-21T05:26:17.093Z,2.68
2023-02-21T05:29:00.218Z,2.65
2023-02-21T05:31:43.454Z,2.72
2023-02-21T05:34:26.647Z,2.79
2023-02-21T05:37:11.404Z,2.80
2023-02-21T05:39:54.747Z,2.86
2023-02-21T05:42:37.911Z,2.88
2023-02-21T05:45:21.167Z,3.06
2023-02-21T05:48:04.436Z,3.01
2023-02-21T05:50:47.468Z,3.21
2023-02-21T05:53:32.052Z,3.33
2023-02-21T05:56:15.911Z,3.45
2023-02-21T05:58:59.038Z,3.62
2023-02-21T06:01:42.172Z,3.76
2023-02-21T06:04:25.640Z,3.89
2023-02-21T06:07:08.926Z,4.13
2023-02-21T06:09:53.551Z,4.32
2023-02-21T06:12:36.650Z,4.55
2023-02-21T06:15:21.119Z,4.64
2023-02-21T06:18:04.330Z,4.85
2023-02-21T06:20:47.658Z,5.12
2023-02-21T06:23:30.761Z,5.32
2023-02-21T06:26:16.293Z,5.36
2023-02-21T06:28:59.484Z,6.00
2023-02-21T06:31:42.702Z,8.20
2023-02-21T06:34:26.301Z,11.10
2023-02-21T06:37:09.397Z,13.87
2023-02-21T06:39:52.496Z,16.35
2023-02-21T06:42:37.830Z,18.46
2023-02-21T06:45:21.125Z,20.86
2023-02-21T06:48:04.214Z,23.07
2023-02-21T06:50:47.254Z,24.87
2023-02-21T06:53:30.477Z,26.63
2023-02-21T06:56:13.542Z,28.31
2023-02-21T06:58:58.338Z,29.17
2023-02-21T07:01:41.474Z,29.76
2023-02-21T07:04:25.327Z,31.23
2023-02-21T07:07:08.483Z,31.65
2023-02-21T07:09:51.696Z,32.45
2023-02-21T07:12:34.879Z,33.94
2023-02-21T07:15:19.458Z,35.55
2023-02-21T07:18:02.493Z,36.58
2023-02-21T07:20:45.497Z,35.95
2023-02-21T07:23:28.597Z,34.47
2023-02-21T07:26:12.243Z,30.87
2023-02-21T07:28:55.391Z,31.79
2023-02-21T07:31:39.986Z,33.04
2023-02-21T07:34:23.570Z,30.51
2023-02-21T07:37:06.673Z,26.46
2023-02-21T07:39:49.705Z,27.36
2023-02-21T07:42:32.854Z,26.55
2023-02-21T07:45:17.300Z,27.14
2023-02-21T07:48:01.795Z,28.40
2023-02-21T07:50:46.021Z,25.06
2023-02-21T07:53:29.232Z,27.59
2023-02-21T07:56:15.221Z,28.15
2023-02-21T07:58:58.274Z,27.96
2023-02-21T08:01:41.440Z,26.78
2023-02-21T08:04:26.090Z,24.98
2023-02-21T08:07:10.667Z,24.77
2023-02-21T08:09:53.827Z,24.12
2023-02-21T08:12:36.911Z,24.02
2023-02-21T08:15:20.469Z,20.78
2023-02-21T08:18:03.574Z,20.88
2023-02-21T08:20:48.605Z,20.74
2023-02-21T08:23:31.726Z,20.78
2023-02-21T08:26:14.742Z,20.89
2023-02-21T08:28:57.904Z,21.25
2023-02-21T08:31:42.236Z,21.82
2023-02-21T08:34:25.968Z,22.97
2023-02-21T08:37:17.595Z,24.74
2023-02-21T08:40:01.241Z,25.09
2023-02-21T08:42:44.328Z,25.44
2023-02-21T08:45:28.909Z,25.87
2023-02-21T08:48:12.518Z,26.22
2023-02-21T08:50:55.668Z,27.29
2023-02-21T08:53:40.145Z,27.21
2023-02-21T08:56:24.462Z,27.24
2023-02-21T08:59:09.597Z,27.17
2023-02-21T09:01:52.806Z,28.91
2023-02-21T09:04:37.166Z,30.56
2023-02-21T09:07:21.751Z,31.12
2023-02-21T09:10:09.916Z,31.76
2023-02-21T09:12:53.034Z,32.14
2023-02-21T09:15:36.321Z,31.52
2023-02-21T09:18:19.390Z,31.28
2023-02-21T09:21:02.556Z,31.18
2023-02-21T09:23:45.778Z,31.17
2023-02-21T09:26:33.013Z,31.77
2023-02-21T09:29:16.772Z,32.95
2023-02-21T09:31:59.998Z,34.17
2023-02-21T09:34:43.083Z,33.48
2023-02-21T09:37:26.131Z,34.04
2023-02-21T09:40:16.971Z,38.23
2023-02-21T09:43:03.514Z,40.54
2023-02-21T09:45:47.661Z,42.59
2023-02-21T09:48:32.481Z,41.43
2023-02-21T09:51:16.729Z,39.84
2023-02-21T09:54:01.744Z,36.12
2023-02-21T09:56:46.267Z,31.50
2023-02-21T09:59:33.433Z,29.71
2023-02-21T10:02:34.474Z,28.34
2023-02-21T10:05:30.541Z,28.97
2023-02-21T10:08:24.391Z,29.68
2023-02-21T10:11:23.822Z,32.83
2023-02-21T10:14:19.026Z,33.24
2023-02-21T10:17:13.099Z,35.58
2023-02-21T10:20:01.735Z,36.74
2023-02-21T10:22:48.174Z,42.18
2023-02-21T10:25:33.725Z,43.64
2023-02-21T10:28:20.404Z,41.44
2023-02-21T10:31:09.832Z,38.59
2023-02-21T10:33:54.338Z,40.21
2023-02-21T10:36:40.202Z,39.15
2023-02-21T10:39:32.174Z,40.17
2023-02-21T10:42:27.723Z,42.33
2023-02-21T10:45:14.109Z,42.87
2023-02-21T10:48:02.982Z,45.33
2023-02-21T10:50:53.519Z,48.29
2023-02-21T10:53:38.725Z,49.03
2023-02-21T10:56:25.367Z,48.95
2023-02-21T10:59:08.802Z,46.26
2023-02-21T11:01:53.550Z,45.56
2023-02-21T11:04:38.745Z,47.17
2023-02-21T11:07:24.616Z,48.67
2023-02-21T11:10:28.520Z,50.50
2023-02-21T11:13:19.590Z,52.13
2023-02-21T11:16:13.107Z,53.34
2023-02-21T11:19:09.053Z,51.84
2023-02-21T11:21:57.772Z,52.26
2023-02-21T11:25:02.001Z,53.69
2023-02-21T11:27:46.538Z,53.05
2023-02-21T11:30:31.546Z,54.35
2023-02-21T11:33:22.048Z,52.65
2023-02-21T11:36:14.104Z,52.58
2023-02-21T11:39:16.920Z,54.83
2023-02-21T11:42:04.496Z,53.96
2023-02-21T11:44:49.362Z,50.92
2023-02-21T11:47:39.443Z,50.75
2023-02-21T11:50:27.138Z,50.50
2023-02-21T11:53:22.615Z,48.09
2023-02-21T11:56:16.362Z,41.19
2023-02-21T11:59:06.852Z,35.99
2023-02-21T12:02:01.718Z,32.47
2023-02-21T12:04:57.708Z,29.41
2023-02-21T12:07:47.168Z,26.99
2023-02-21T12:10:42.342Z,26.14
2023-02-21T12:13:34.430Z,24.77
2023-02-21T12:16:28.506Z,23.83
2023-02-21T12:19:28.881Z,23.08
2023-02-21T12:22:23.956Z,22.65
2023-02-21T12:25:17.762Z,22.16
2023-02-21T12:28:11.855Z,21.14
2023-02-21T12:31:13.495Z,21.19
2023-02-21T12:34:16.954Z,21.16
2023-02-21T12:37:11.895Z,21.08
2023-02-21T12:40:10.463Z,20.88
2023-02-21T12:43:30.130Z,20.82
2023-02-21T12:46:24.092Z,20.52
2023-02-21T12:49:15.760Z,20.36
2023-02-21T12:52:03.980Z,20.04
2023-02-21T12:54:56.846Z,20.05
2023-02-21T12:57:48.856Z,20.05
2023-02-21T13:00:39.026Z,19.81
2023-02-21T13:03:38.113Z,19.86
2023-02-21T13:06:31.522Z,19.60
2023-02-21T13:09:23.335Z,19.48
2023-02-21T13:12:11.267Z,19.31
2023-02-21T13:14:58.690Z,19.27
2023-02-21T13:17:43.053Z,19.25
2023-02-21T13:20:32.363Z,18.95
2023-02-21T13:24:07.972Z,18.97
2023-02-21T13:27:02.292Z,18.93
2023-02-21T13:29:46.044Z,18.91
2023-02-21T13:32:29.585Z,18.93
2023-02-21T13:35:20.318Z,18.82
2023-02-21T13:38:08.329Z,18.83
2023-02-21T13:40:55.364Z,18.71
2023-02-21T13:43:48.630Z,18.75
2023-02-21T13:47:17.490Z,18.68
2023-02-21T13:50:01.059Z,18.56
2023-02-21T13:53:14.070Z,18.52
2023-02-21T13:56:43.953Z,18.51
2023-02-21T13:59:38.327Z,18.38
2023-02-21T14:02:31.237Z,18.37
2023-02-21T14:05:14.508Z,18.21
2023-02-21T14:08:02.592Z,18.22
2023-02-21T14:10:51.176Z,18.09
2023-02-21T14:13:37.534Z,18.05
2023-02-21T14:16:26.618Z,17.93
2023-02-21T14:19:12.297Z,17.94
2023-02-21T14:22:04.043Z,17.92
2023-02-21T14:24:49.857Z,17.79
2023-02-21T14:27:37.286Z,17.62
2023-02-21T14:30:33.893Z,17.67
2023-02-21T14:33:27.487Z,17.72
2023-02-21T14:36:15.128Z,17.57
2023-02-21T14:38:59.329Z,17.59
2023-02-21T14:41:56.734Z,17.67
2023-02-21T14:44:56.930Z,17.48
2023-02-21T14:48:01.414Z,17.43
2023-02-21T14:51:07.403Z,17.34
2023-02-21T14:54:23.553Z,17.25
2023-02-21T14:57:28.754Z,17.20
2023-02-21T15:00:28.420Z,17.19
2023-02-21T15:03:17.500Z,17.08
2023-02-21T15:06:06.257Z,17.01
2023-02-21T15:08:51.043Z,16.98
2023-02-21T15:11:37.710Z,16.79
2023-02-21T15:14:27.258Z,16.78
2023-02-21T15:17:18.571Z,16.80
2023-02-21T15:20:10.490Z,16.67
2023-02-21T15:23:01.970Z,16.59
2023-02-21T15:25:46.618Z,16.52
2023-02-21T15:28:31.395Z,16.38
2023-02-21T15:31:16.678Z,16.20
2023-02-21T15:34:01.438Z,16.10
2023-02-21T15:36:45.497Z,16.00
2023-02-21T15:39:34.814Z,15.90
2023-02-21T15:42:19.973Z,15.80
2023-02-21T15:45:11.509Z,15.70
2023-02-21T15:47:55.743Z,15.56
2023-02-21T15:50:43.905Z,15.49
2023-02-21T15:53:27.107Z,15.36
2023-02-21T15:56:25.544Z,15.30
2023-02-21T15:59:15.186Z,15.18
2023-02-21T16:02:16.793Z,15.10
2023-02-21T16:04:59.950Z,15.00
2023-02-21T16:07:44.339Z,14.90
2023-02-21T16:10:28.555Z,14.78
2023-02-21T16:13:17.202Z,14.72
2023-02-21T16:16:02.179Z,14.64
2023-02-21T16:18:45.601Z,14.52
2023-02-21T16:21:31.108Z,14.49
2023-02-21T16:24:32.454Z,14.35
2023-02-21T16:27:20.958Z,14.26
2023-02-21T16:30:13.274Z,14.11
2023-02-21T16:33:01.338Z,13.94
2023-02-21T16:35:44.888Z,13.87
2023-02-21T16:38:30.304Z,13.73
2023-02-21T16:41:15.712Z,13.60
2023-02-21T16:43:59.274Z,13.38
2023-02-21T16:46:46.152Z,13.22
2023-02-21T16:49:29.633Z,13.05
2023-02-21T16:52:17.869Z,13.04
2023-02-21T16:55:01.113Z,12.97
2023-02-21T16:57:44.994Z,12.82
2023-02-21T17:00:30.502Z,12.81
2023-02-21T17:03:15.173Z,12.83
2023-02-21T17:06:00.383Z,12.77
2023-02-21T17:08:43.454Z,12.62
2023-02-21T17:11:26.670Z,12.36
2023-02-21T17:14:12.505Z,12.18
2023-02-21T17:16:58.506Z,12.16
2023-02-21T17:19:43.421Z,11.97
2023-02-21T17:22:26.533Z,11.87
2023-02-21T17:25:10.370Z,11.73
2023-02-21T17:27:53.384Z,11.71
2023-02-21T17:30:36.654Z,11.64
2023-02-21T17:33:19.836Z,11.67
2023-02-21T17:36:04.997Z,11.61
2023-02-21T17:38:48.048Z,11.44
2023-02-21T17:41:31.144Z,11.43
2023-02-21T17:44:14.718Z,11.35
2023-02-21T17:46:59.278Z,11.32
2023-02-21T17:49:42.568Z,11.34
2023-02-21T17:52:30.248Z,11.39
2023-02-21T17:55:20.545Z,11.32
2023-02-21T17:58:04.843Z,11.28
2023-02-21T18:00:50.175Z,11.28
2023-02-21T18:03:38.161Z,11.22
2023-02-21T18:06:23.173Z,11.06
2023-02-21T18:09:11.413Z,11.05
2023-02-21T18:11:56.897Z,11.07
2023-02-21T18:14:42.908Z,11.05
2023-02-21T18:17:27.256Z,11.05
2023-02-21T18:20:15.495Z,11.07
2023-02-21T18:22:58.937Z,10.96
2023-02-21T18:25:45.344Z,10.91
2023-02-21T18:28:29.315Z,10.87
2023-02-21T18:31:16.067Z,10.72
2023-02-21T18:33:59.948Z,10.71
2023-02-21T18:36:49.506Z,10.64
2023-02-21T18:39:33.556Z,10.49
2023-02-21T18:42:18.335Z,10.51
2023-02-21T18:45:01.488Z,10.47
2023-02-21T18:47:45.871Z,10.37
2023-02-21T18:50:28.993Z,10.26
2023-02-21T18:53:12.925Z,10.30
2023-02-21T18:55:57.500Z,10.25
2023-02-21T18:58:42.426Z,10.20
2023-02-21T19:01:27.258Z,10.18
2023-02-21T19:04:10.532Z,10.15
2023-02-21T19:06:57.194Z,10.13
2023-02-21T19:09:41.051Z,10.06
2023-02-21T19:12:24.644Z,10.06
2023-02-21T19:15:10.415Z,9.77
2023-02-21T19:17:53.515Z,9.87
2023-02-21T19:20:37.342Z,9.88
2023-02-21T19:23:20.578Z,9.87
2023-02-21T19:26:03.781Z,9.82
2023-02-21T19:28:47.809Z,9.80
2023-02-21T19:31:32.465Z,9.79
2023-02-21T19:34:15.979Z,9.68
2023-02-21T19:36:59.120Z,9.70
2023-02-21T19:39:42.273Z,9.59
2023-02-21T19:42:27.567Z,9.53
2023-02-21T19:45:10.983Z,9.46
2023-02-21T19:47:55.588Z,9.29
2023-02-21T19:50:38.981Z,9.30
2023-02-21T19:53:22.674Z,9.21
2023-02-21T19:56:06.467Z,9.16
2023-02-21T19:58:49.563Z,9.01
2023-02-21T20:01:34.187Z,8.97
2023-02-21T20:04:19.650Z,8.99
2023-02-21T20:07:03.135Z,8.93
2023-02-21T20:09:48.099Z,8.87
2023-02-21T20:12:32.683Z,8.74
2023-02-21T20:15:15.859Z,8.82
2023-02-21T20:18:00.864Z,8.80
2023-02-21T20:20:45.637Z,8.77
2023-02-21T20:23:28.901Z,8.82
2023-02-21T20:26:13.026Z,8.77
2023-02-21T20:28:57.241Z,8.76
2023-02-21T20:31:40.622Z,8.74
2023-02-21T20:34:24.952Z,8.66
2023-02-21T20:40:11.156Z,8.68
2023-02-21T20:42:54.535Z,8.60
2023-02-21T20:45:38.624Z,8.54
2023-02-21T20:48:28.262Z,8.49
2023-02-21T20:51:12.441Z,8.45
2023-02-21T20:53:55.883Z,8.47
2023-02-21T20:56:42.351Z,8.41
2023-02-21T20:59:27.875Z,8.34
2023-02-21T21:02:11.126Z,8.30
2023-02-21T21:04:55.031Z,8.30
2023-02-21T21:07:38.448Z,8.30
2023-02-21T21:10:21.882Z,8.27
2023-02-21T21:13:07.194Z,8.23
2023-02-21T21:15:50.435Z,8.27
2023-02-21T21:18:34.840Z,8.17
2023-02-21T21:21:18.833Z,8.25
2023-02-21T21:24:02.277Z,8.34
2023-02-21T21:26:51.364Z,8.34
2023-02-21T21:29:36.809Z,8.37
2023-02-21T21:32:22.604Z,8.34
2023-02-21T21:35:07.677Z,8.39
2023-02-21T21:37:51.114Z,8.30
2023-02-21T21:40:35.806Z,8.17
2023-02-21T21:43:19.163Z,8.22
2023-02-21T21:46:04.347Z,8.09
2023-02-21T21:48:49.059Z,8.11
2023-02-21T21:51:34.115Z,7.98
2023-02-21T21:54:20.765Z,7.96
2023-02-21T21:57:05.563Z,7.94
2023-02-21T21:59:51.147Z,7.83
2023-02-21T22:02:35.997Z,7.89
2023-02-21T22:05:21.194Z,7.86
2023-02-21T22:08:04.795Z,7.86
2023-02-21T22:10:48.436Z,7.84
2023-02-21T22:13:34.121Z,7.89
2023-02-21T22:16:18.197Z,7.86
2023-02-21T22:19:02.801Z,7.81
2023-02-21T22:21:46.755Z,7.75
2023-02-21T22:24:30.428Z,7.73
2023-02-21T22:27:14.995Z,7.74
2023-02-21T22:29:58.588Z,7.76
2023-02-21T22:32:42.845Z,7.71
2023-02-21T22:35:29.068Z,7.73
2023-02-21T22:38:14.605Z,7.74
2023-02-21T22:41:00.158Z,7.69
2023-02-21T22:43:43.272Z,7.63
2023-02-21T22:46:29.253Z,7.39
2023-02-21T22:49:16.875Z,7.29
2023-02-21T22:52:01.832Z,7.04
2023-02-21T22:54:44.962Z,6.63
2023-02-21T22:57:28.162Z,6.74
2023-02-21T23:00:19.729Z,6.74
2023-02-21T23:03:12.870Z,6.56
2023-02-21T23:06:02.076Z,6.68
2023-02-21T23:08:50.578Z,6.70
2023-02-21T23:11:34.075Z,6.78
2023-02-21T23:14:19.100Z,6.77
2023-02-21T23:17:02.664Z,6.78
2023-02-21T23:19:45.788Z,6.68
2023-02-21T23:22:29.024Z,6.74
2023-02-21T23:25:20.977Z,6.68
2023-02-21T23:28:08.824Z,6.63
2023-02-21T23:30:52.271Z,6.44
2023-02-21T23:33:35.368Z,6.57
2023-02-21T23:36:22.744Z,6.54
2023-02-21T23:39:09.361Z,6.39
2023-02-21T23:41:53.919Z,6.47
2023-02-21T23:44:37.197Z,6.40
2023-02-21T23:47:20.322Z,6.40
2023-02-21T23:50:07.492Z,6.34
2023-02-21T23:52:54.539Z,6.28
2023-02-21T23:55:37.591Z,6.24
2023-02-21T23:58:22.500Z,6.32
